Time;durP1;ratioP1;P1;durP2;ratioP2;P2;SDS_P1;SDS_P2;PMS_P1;PMS_P2;Temp;Humidity;BMP_temperature;BMP_pressure;BME280_temperature;BME280_humidity;BME280_pressure;Samples;Min_cycle;Max_cycle;Signal;HPM_P1;HPM_P2
2020/12/09 00:00:29;;;;;;;100.87;59.87;;;2.20;87.50;;;;;;4996749;28;88055;-74
2020/12/09 00:02:56;;;;;;;117.60;65.57;;;2.20;87.20;;;;;;4979776;28;87239;-75
2020/12/09 00:05:22;;;;;;;97.73;61.33;;;2.30;86.90;;;;;;4980199;28;91445;-74
2020/12/09 00:07:48;;;;;;;110.50;61.70;;;2.20;87.10;;;;;;4988593;28;90647;-75
2020/12/09 00:10:14;;;;;;;101.17;60.60;;;2.20;87.30;;;;;;4980263;28;87481;-74
2020/12/09 00:12:40;;;;;;;112.07;62.37;;;2.20;87.30;;;;;;4981796;28;87239;-74
2020/12/09 00:15:08;;;;;;;112.23;62.93;;;2.20;87.20;;;;;;4981034;28;91600;-74
2020/12/09 00:17:37;;;;;;;106.73;62.07;;;2.20;87.40;;;;;;5003144;28;88027;-74
2020/12/09 00:20:05;;;;;;;116.20;65.43;;;2.10;87.70;;;;;;5001073;28;87359;-74
2020/12/09 00:22:30;;;;;;;105.17;61.20;;;2.10;87.90;;;;;;5001346;28;86868;-74
2020/12/09 00:24:56;;;;;;;110.27;66.53;;;2.00;88.40;;;;;;4982395;28;91270;-75
2020/12/09 00:27:23;;;;;;;107.90;62.70;;;2.00;88.70;;;;;;4987569;28;91630;-74
2020/12/09 00:29:50;;;;;;;102.17;62.10;;;2.00;88.80;;;;;;4999351;28;87015;-75
2020/12/09 00:32:16;;;;;;;108.77;63.07;;;2.00;88.60;;;;;;4968405;28;87262;-74
2020/12/09 00:34:41;;;;;;;105.07;61.27;;;2.00;88.50;;;;;;4986261;28;88466;-74
2020/12/09 00:37:07;;;;;;;100.53;61.13;;;2.00;88.60;;;;;;5002451;28;87638;-74
2020/12/09 00:39:33;;;;;;;98.97;57.30;;;1.90;88.80;;;;;;5001303;28;86848;-74
2020/12/09 00:42:00;;;;;;;104.27;60.90;;;1.90;89.20;;;;;;5016347;28;86342;-75
2020/12/09 00:44:27;;;;;;;108.87;61.70;;;1.90;89.50;;;;;;5016247;28;88014;-74
2020/12/09 00:46:53;;;;;;;107.90;60.93;;;2.00;88.70;;;;;;5000477;28;87584;-75
2020/12/09 00:49:19;;;;;;;104.97;60.67;;;1.90;88.60;;;;;;4998954;28;88173;-74
2020/12/09 00:51:45;;;;;;;101.70;60.53;;;2.00;88.10;;;;;;4986242;28;87922;-74
2020/12/09 00:54:12;;;;;;;106.73;60.57;;;1.80;88.80;;;;;;4995581;28;91719;-74
2020/12/09 00:56:43;;;;;;;99.70;60.07;;;1.90;89.20;;;;;;4963146;28;90895;-74
2020/12/09 00:59:12;;;;;;;105.97;62.63;;;1.90;88.70;;;;;;4978593;28;87357;-74
2020/12/09 01:01:38;;;;;;;107.83;60.23;;;2.00;88.40;;;;;;4996204;28;87240;-75
2020/12/09 01:04:07;;;;;;;106.33;63.53;;;2.00;88.40;;;;;;4979752;28;88342;-74
2020/12/09 01:06:34;;;;;;;104.77;61.43;;;2.00;88.40;;;;;;4976349;28;92006;-74
2020/12/09 01:09:05;;;;;;;100.67;59.33;;;2.00;88.30;;;;;;4984814;28;87385;-75
2020/12/09 01:11:31;;;;;;;112.83;63.07;;;1.90;88.00;;;;;;4998408;28;87953;-75
2020/12/09 01:13:57;;;;;;;113.73;64.07;;;1.90;88.60;;;;;;4998005;28;89864;-74
2020/12/09 01:16:23;;;;;;;105.03;61.60;;;1.90;88.70;;;;;;4998716;28;89265;-74
2020/12/09 01:18:49;;;;;;;113.87;63.63;;;1.90;88.70;;;;;;4997618;28;87388;-75
2020/12/09 01:21:15;;;;;;;102.70;58.57;;;1.90;88.40;;;;;;5000399;28;87190;-74
2020/12/09 01:23:41;;;;;;;112.73;64.57;;;1.90;88.30;;;;;;4989447;28;87583;-74
2020/12/09 01:26:10;;;;;;;112.13;61.60;;;1.90;88.90;;;;;;4980309;28;91422;-74
2020/12/09 01:28:37;;;;;;;107.20;64.23;;;1.80;89.30;;;;;;5000086;28;87082;-74
2020/12/09 01:31:03;;;;;;;107.37;63.30;;;1.70;89.70;;;;;;4994332;28;86451;-74
2020/12/09 01:33:28;;;;;;;101.13;60.93;;;1.60;90.20;;;;;;4979096;28;88237;-74
2020/12/09 01:35:54;;;;;;;98.97;61.43;;;1.60;90.40;;;;;;4989080;28;90814;-74
2020/12/09 01:38:20;;;;;;;106.83;62.23;;;1.50;90.60;;;;;;5015369;28;88668;-74
2020/12/09 01:40:46;;;;;;;104.40;61.80;;;1.70;90.40;;;;;;4998254;28;87107;-75
2020/12/09 01:43:12;;;;;;;112.93;60.07;;;1.60;90.50;;;;;;4999763;28;89114;-74
2020/12/09 01:45:38;;;;;;;112.67;64.63;;;1.50;90.60;;;;;;4997976;28;90407;-74
2020/12/09 01:48:07;;;;;;;113.03;64.07;;;1.60;90.70;;;;;;4997874;28;87398;-74
2020/12/09 01:50:33;;;;;;;112.90;63.27;;;1.70;90.20;;;;;;4982639;28;87070;-74
2020/12/09 01:52:59;;;;;;;111.70;65.60;;;1.80;89.90;;;;;;4971962;28;90975;-74
2020/12/09 01:55:25;;;;;;;109.97;63.67;;;1.70;90.10;;;;;;4998407;28;91191;-74
2020/12/09 01:57:51;;;;;;;107.93;62.57;;;1.60;90.50;;;;;;4981257;28;86957;-75
2020/12/09 02:00:17;;;;;;;112.93;65.97;;;1.60;90.70;;;;;;4997899;28;87174;-74
2020/12/09 02:02:43;;;;;;;114.87;62.13;;;1.80;90.50;;;;;;4988353;28;88540;-74
2020/12/09 02:05:13;;;;;;;109.30;62.30;;;1.80;90.30;;;;;;4994338;28;89868;-75
2020/12/09 02:07:38;;;;;;;111.57;64.40;;;1.80;90.10;;;;;;4978289;28;87132;-74
2020/12/09 02:10:06;;;;;;;105.47;59.17;;;1.80;90.30;;;;;;4976915;28;87680;-74
2020/12/09 02:12:34;;;;;;;98.40;57.97;;;1.80;90.30;;;;;;4977791;28;87304;-74
2020/12/09 02:15:00;;;;;;;103.37;61.37;;;1.80;90.40;;;;;;4977541;28;91032;-74
2020/12/09 02:17:27;;;;;;;114.90;64.60;;;1.80;90.50;;;;;;4964498;28;86908;-74
2020/12/09 02:19:53;;;;;;;111.97;63.37;;;1.70;90.70;;;;;;4979854;28;86310;-74
2020/12/09 02:22:18;;;;;;;101.67;61.13;;;1.80;90.60;;;;;;4972939;28;91015;-74
2020/12/09 02:24:44;;;;;;;100.90;59.77;;;1.90;90.60;;;;;;4996717;28;90963;-74
2020/12/09 02:27:10;;;;;;;98.57;57.10;;;2.00;90.20;;;;;;4996175;28;88013;-74
2020/12/09 02:29:36;;;;;;;97.97;57.23;;;2.00;90.10;;;;;;4998915;28;87078;-74
2020/12/09 02:32:02;;;;;;;98.10;58.67;;;1.90;90.30;;;;;;5013875;28;91160;-74
2020/12/09 02:34:29;;;;;;;105.73;57.57;;;1.90;90.70;;;;;;4979246;28;90011;-74
2020/12/09 02:36:54;;;;;;;103.47;57.40;;;1.80;91.20;;;;;;4986795;28;86908;-74
2020/12/09 02:39:31;;;;;;;103.57;58.33;;;1.70;91.70;;;;;;4977860;28;87533;-74
2020/12/09 02:41:57;;;;;;;92.73;52.03;;;1.70;91.80;;;;;;4987878;28;91375;-74
2020/12/09 02:44:23;;;;;;;93.87;53.43;;;1.70;91.90;;;;;;4961925;28;91509;-74
2020/12/09 02:46:49;;;;;;;90.10;51.67;;;1.80;91.90;;;;;;4994654;28;87188;-75
2020/12/09 02:49:15;;;;;;;95.03;54.27;;;1.70;92.00;;;;;;4979734;28;87156;-74
2020/12/09 02:51:41;;;;;;;95.73;55.70;;;1.70;92.00;;;;;;4978507;28;89075;-74
2020/12/09 02:54:07;;;;;;;99.57;55.80;;;1.90;91.40;;;;;;4993300;28;89350;-74
2020/12/09 02:56:33;;;;;;;86.07;51.97;;;2.00;90.80;;;;;;4978225;28;86737;-74
2020/12/09 02:58:58;;;;;;;91.37;51.10;;;1.90;91.30;;;;;;4978971;28;86996;-74
2020/12/09 03:01:24;;;;;;;86.20;50.43;;;1.90;91.50;;;;;;4974720;28;90294;-74
2020/12/09 03:03:50;;;;;;;80.70;47.13;;;1.90;91.40;;;;;;4996328;28;90713;-75
2020/12/09 03:06:16;;;;;;;94.70;52.60;;;2.00;91.00;;;;;;4997935;28;87031;-74
2020/12/09 03:08:42;;;;;;;96.43;54.80;;;2.10;90.40;;;;;;4999456;28;86285;-74
2020/12/09 03:11:08;;;;;;;93.03;51.07;;;2.30;90.10;;;;;;4996618;28;92752;-74
2020/12/09 03:13:33;;;;;;;104.20;57.47;;;2.30;89.60;;;;;;4997559;28;88187;-75
2020/12/09 03:15:59;;;;;;;105.67;57.03;;;2.20;90.20;;;;;;4995752;28;88178;-74
2020/12/09 03:18:25;;;;;;;94.43;55.70;;;2.10;90.30;;;;;;5014520;28;87085;-74
2020/12/09 03:20:51;;;;;;;88.37;53.13;;;2.00;90.70;;;;;;4996923;28;91232;-75
2020/12/09 03:23:16;;;;;;;89.60;55.30;;;2.10;90.70;;;;;;5000983;28;91313;-74
2020/12/09 03:25:42;;;;;;;85.70;49.27;;;2.10;91.10;;;;;;5000605;28;87454;-74
2020/12/09 03:28:08;;;;;;;85.60;47.07;;;2.10;91.10;;;;;;5001655;28;86841;-74
2020/12/09 03:30:34;;;;;;;83.73;44.57;;;1.90;91.80;;;;;;5000846;28;91058;-74
2020/12/09 03:33:00;;;;;;;80.97;45.93;;;1.80;92.30;;;;;;4983722;28;91163;-74
2020/12/09 03:35:25;;;;;;;79.43;45.80;;;1.80;92.60;;;;;;5000663;28;87507;-74
2020/12/09 03:37:51;;;;;;;86.10;45.73;;;1.80;92.70;;;;;;4999982;28;88348;-75
2020/12/09 03:40:17;;;;;;;90.83;46.40;;;1.80;92.80;;;;;;5001859;28;89442;-74
2020/12/09 03:42:43;;;;;;;81.83;44.97;;;1.80;92.80;;;;;;4983569;28;91038;-74
2020/12/09 03:45:09;;;;;;;74.70;43.67;;;1.80;92.80;;;;;;4999674;28;87306;-74
2020/12/09 03:47:35;;;;;;;81.73;43.80;;;1.90;92.60;;;;;;5002219;28;87104;-74
2020/12/09 03:50:00;;;;;;;76.87;41.70;;;1.90;92.30;;;;;;4999814;28;90911;-75
2020/12/09 03:52:26;;;;;;;79.73;44.10;;;1.90;92.40;;;;;;5000886;28;91070;-75
2020/12/09 03:54:52;;;;;;;77.70;42.80;;;2.00;92.20;;;;;;5001198;28;86830;-75
2020/12/09 03:57:18;;;;;;;79.00;43.23;;;1.90;92.50;;;;;;5004217;28;87117;-74
2020/12/09 03:59:44;;;;;;;79.23;44.77;;;1.80;92.90;;;;;;4986761;28;92132;-74
2020/12/09 04:02:10;;;;;;;81.53;42.30;;;1.80;93.10;;;;;;5001171;28;90679;-75
2020/12/09 04:04:35;;;;;;;85.27;46.63;;;1.90;93.20;;;;;;5001539;28;87878;-74
2020/12/09 04:07:01;;;;;;;79.63;42.40;;;2.00;92.80;;;;;;4999798;28;87072;-75
2020/12/09 04:09:27;;;;;;;76.27;41.17;;;2.10;92.40;;;;;;5001842;28;87827;-75
2020/12/09 04:11:53;;;;;;;78.63;42.63;;;2.10;92.60;;;;;;4994148;28;88891;-75
2020/12/09 04:14:19;;;;;;;84.27;43.80;;;2.10;92.50;;;;;;4992266;28;87209;-74
2020/12/09 04:16:45;;;;;;;79.93;39.17;;;2.10;92.70;;;;;;5001532;28;87042;-74
2020/12/09 04:19:10;;;;;;;85.90;42.57;;;2.00;92.90;;;;;;5001002;28;88249;-74
2020/12/09 04:21:36;;;;;;;78.70;38.70;;;2.00;93.00;;;;;;4981476;28;90945;-74
2020/12/09 04:24:02;;;;;;;87.93;41.80;;;2.00;93.40;;;;;;4979488;28;86836;-75
2020/12/09 04:26:28;;;;;;;77.87;38.23;;;2.00;93.30;;;;;;4982004;28;88253;-74
2020/12/09 04:28:54;;;;;;;71.73;37.37;;;2.00;93.00;;;;;;4995323;28;92666;-75
2020/12/09 04:31:20;;;;;;;76.80;39.40;;;2.00;93.00;;;;;;4994337;28;88847;-75
2020/12/09 04:33:56;;;;;;;84.30;41.63;;;1.90;93.50;;;;;;4979244;28;87384;-74
2020/12/09 04:36:22;;;;;;;80.57;42.57;;;2.00;93.50;;;;;;4995087;28;89791;-74
2020/12/09 04:38:49;;;;;;;84.20;41.07;;;2.10;93.20;;;;;;4982795;28;91660;-75
2020/12/09 04:41:16;;;;;;;73.17;39.00;;;2.00;93.30;;;;;;4982665;28;90181;-74
2020/12/09 04:43:42;;;;;;;71.90;38.00;;;2.00;93.30;;;;;;5016043;28;87455;-75
2020/12/09 04:46:08;;;;;;;80.87;38.97;;;2.10;93.10;;;;;;4999559;28;86445;-74
2020/12/09 04:48:39;;;;;;;82.83;39.13;;;2.20;92.70;;;;;;4999822;28;88575;-74
2020/12/09 04:51:47;;;;;;;63.88;36.15;;;2.10;92.90;;;;;;4999040;28;88343;-75
2020/12/09 04:54:16;;;;;;;91.53;40.03;;;2.00;93.10;;;;;;4998081;28;87982;-74
2020/12/09 04:57:12;;;;;;;71.53;35.60;;;2.10;93.20;;;;;;4999458;28;88034;-75
2020/12/09 04:59:42;;;;;;;78.13;38.30;;;2.00;93.20;;;;;;4999976;28;88601;-74
2020/12/09 05:02:10;;;;;;;78.63;39.43;;;1.90;93.90;;;;;;4998343;28;91272;-75
2020/12/09 05:04:39;;;;;;;76.17;39.27;;;1.90;94.10;;;;;;5000599;28;86900;-74
2020/12/09 05:07:09;;;;;;;90.17;41.37;;;1.90;94.10;;;;;;4998529;28;87752;-75
2020/12/09 05:09:44;;;;;;;64.80;35.97;;;1.90;94.00;;;;;;4999530;28;88027;-74
2020/12/09 05:12:18;;;;;;;74.30;38.47;;;1.90;94.30;;;;;;4978973;28;91635;-75
2020/12/09 05:14:49;;;;;;;75.97;36.83;;;1.90;94.20;;;;;;4995725;28;87659;-75
2020/12/09 05:17:17;;;;;;;78.30;38.67;;;1.90;94.20;;;;;;4978939;28;86982;-75
2020/12/09 05:19:44;;;;;;;79.50;40.60;;;2.00;94.50;;;;;;4992072;28;89628;-75
2020/12/09 05:22:15;;;;;;;74.87;39.53;;;2.10;94.00;;;;;;4977680;28;92470;-75
2020/12/09 05:24:41;;;;;;;71.47;36.57;;;2.20;93.60;;;;;;4978722;28;87119;-75
2020/12/09 05:27:07;;;;;;;64.67;34.37;;;2.10;93.70;;;;;;4978752;28;87346;-75
2020/12/09 05:29:33;;;;;;;75.90;37.70;;;2.10;93.60;;;;;;4983749;28;88813;-74
2020/12/09 05:32:01;;;;;;;66.03;34.17;;;2.20;93.80;;;;;;4999608;28;90580;-75
2020/12/09 05:34:32;;;;;;;69.40;35.77;;;2.10;93.90;;;;;;4998789;28;87297;-75
2020/12/09 05:37:01;;;;;;;72.03;35.87;;;2.10;94.10;;;;;;4998794;28;86840;-75
2020/12/09 05:39:27;;;;;;;66.53;34.27;;;2.00;94.20;;;;;;4998809;28;91513;-75
2020/12/09 05:41:53;;;;;;;67.27;34.13;;;2.10;94.20;;;;;;5000058;28;87825;-76
2020/12/09 05:44:24;;;;;;;65.80;35.43;;;2.20;93.90;;;;;;4980751;28;88305;-75
2020/12/09 05:47:03;;;;;;;86.30;37.47;;;2.30;93.60;;;;;;4998596;28;87890;-76
2020/12/09 05:49:32;;;;;;;70.33;36.47;;;2.40;93.10;;;;;;5000297;28;88750;-74
2020/12/09 05:52:15;;;;;;;74.33;38.20;;;2.40;93.40;;;;;;4997943;28;91487;-75
2020/12/09 05:54:44;;;;;;;71.60;36.87;;;2.30;93.50;;;;;;4998441;28;87128;-74
2020/12/09 05:57:16;;;;;;;75.50;39.30;;;2.40;93.40;;;;;;4997694;28;87164;-75
2020/12/09 05:59:45;;;;;;;70.30;36.60;;;2.50;93.30;;;;;;4998605;28;91940;-74
2020/12/09 06:02:13;;;;;;;67.13;33.73;;;2.50;93.10;;;;;;4992204;28;88440;-74
2020/12/09 06:05:05;;;;;;;64.80;36.60;;;2.40;93.10;;;;;;4978674;28;87082;-75
2020/12/09 06:07:32;;;;;;;62.90;35.58;;;2.30;93.60;;;;;;4986518;28;87294;-74
2020/12/09 06:10:17;;;;;;;66.33;35.13;;;2.30;93.80;;;;;;4996472;28;92285;-75
2020/12/09 06:13:00;;;;;;;80.40;38.63;;;2.20;94.10;;;;;;4984748;28;89328;-75
2020/12/09 06:15:33;;;;;;;68.40;35.87;;;2.30;94.00;;;;;;4977734;28;87471;-75
2020/12/09 06:18:06;;;;;;;65.47;34.90;;;2.30;94.00;;;;;;4976636;28;88349;-75
2020/12/09 06:20:34;;;;;;;73.70;37.43;;;2.30;93.90;;;;;;4977561;28;88343;-75
2020/12/09 06:23:09;;;;;;;67.73;37.40;;;2.50;93.60;;;;;;4977243;28;91142;-74
2020/12/09 06:25:35;;;;;;;67.90;37.40;;;2.50;93.30;;;;;;4997148;28;86982;-75
2020/12/09 06:28:06;;;;;;;78.30;40.00;;;2.60;93.10;;;;;;4998837;28;86388;-75
2020/12/09 06:30:32;;;;;;;73.40;38.97;;;2.70;92.90;;;;;;4997738;28;88194;-75
2020/12/09 06:32:58;;;;;;;79.83;40.80;;;2.60;93.00;;;;;;4998747;28;87056;-75
2020/12/09 06:35:24;;;;;;;72.00;39.13;;;2.70;92.90;;;;;;4998891;28;88360;-75
2020/12/09 06:38:08;;;;;;;73.87;40.83;;;2.70;92.70;;;;;;4980505;28;87551;-75
2020/12/09 06:40:57;;;;;;;65.33;38.47;;;2.60;92.70;;;;;;4977751;28;90537;-74
2020/12/09 06:43:23;;;;;;;70.93;37.90;;;2.60;93.00;;;;;;4977116;28;92027;-75
2020/12/09 06:45:49;;;;;;;76.73;39.77;;;2.60;93.10;;;;;;4977960;28;87106;-74
2020/12/09 06:48:17;;;;;;;76.90;38.50;;;2.50;93.20;;;;;;4977519;28;87777;-74
2020/12/09 06:50:44;;;;;;;81.57;42.60;;;2.40;93.70;;;;;;4977570;28;90297;-75
2020/12/09 06:53:20;;;;;;;84.63;40.97;;;2.40;94.00;;;;;;4977342;28;91598;-74
2020/12/09 06:55:49;;;;;;;76.13;39.40;;;2.50;93.60;;;;;;4978340;28;87318;-75
2020/12/09 06:58:35;;;;;;;79.03;40.27;;;2.60;93.50;;;;;;4977289;28;88785;-75
2020/12/09 07:01:03;;;;;;;70.03;38.50;;;2.50;93.60;;;;;;4976591;28;92535;-75
2020/12/09 07:03:30;;;;;;;80.43;39.37;;;2.50;93.70;;;;;;4977534;28;92043;-75
2020/12/09 07:05:57;;;;;;;80.23;41.13;;;2.40;93.80;;;;;;4961545;28;87001;-75
2020/12/09 07:08:23;;;;;;;72.53;40.40;;;2.50;93.70;;;;;;4978068;28;87073;-75
2020/12/09 07:10:49;;;;;;;71.07;38.40;;;2.50;93.90;;;;;;4987636;28;91784;-75
2020/12/09 07:13:18;;;;;;;77.57;41.03;;;2.50;94.10;;;;;;4995188;28;88002;-75
2020/12/09 07:15:49;;;;;;;75.77;40.13;;;2.40;94.10;;;;;;4961561;28;87587;-75
2020/12/09 07:18:16;;;;;;;78.07;40.33;;;2.40;94.00;;;;;;4994899;28;88956;-74
2020/12/09 07:20:43;;;;;;;78.33;40.47;;;2.40;94.30;;;;;;4993065;28;91513;-75
2020/12/09 07:23:09;;;;;;;77.77;42.37;;;2.40;94.10;;;;;;5004637;28;91470;-75
2020/12/09 07:25:36;;;;;;;83.17;43.23;;;2.50;94.10;;;;;;4997236;28;87799;-75
2020/12/09 07:28:03;;;;;;;71.97;39.27;;;2.60;93.70;;;;;;4996255;28;87082;-75
2020/12/09 07:30:29;;;;;;;84.13;43.63;;;2.60;93.40;;;;;;4999081;28;88622;-75
2020/12/09 07:32:55;;;;;;;79.47;44.33;;;2.70;93.20;;;;;;4994895;28;87932;-76
2020/12/09 07:35:22;;;;;;;74.83;42.33;;;2.80;93.00;;;;;;5012383;28;88113;-75
2020/12/09 07:37:53;;;;;;;70.60;39.33;;;2.80;92.80;;;;;;4977748;28;87474;-75
2020/12/09 07:40:31;;;;;;;70.57;37.90;;;2.80;92.80;;;;;;4976394;28;88629;-75
2020/12/09 07:43:03;;;;;;;74.63;42.07;;;2.70;92.90;;;;;;4974861;28;91815;-75
2020/12/09 07:45:32;;;;;;;78.23;44.60;;;2.70;92.90;;;;;;5004164;28;87060;-75
2020/12/09 07:48:03;;;;;;;71.13;39.13;;;2.80;92.80;;;;;;4989338;28;87801;-75
2020/12/09 07:50:29;;;;;;;69.57;41.90;;;2.80;92.60;;;;;;4995037;28;92375;-75
2020/12/09 07:52:55;;;;;;;66.50;40.63;;;2.70;92.70;;;;;;4997590;28;91331;-75
2020/12/09 07:55:21;;;;;;;79.40;42.87;;;2.80;92.50;;;;;;4995017;28;88048;-74
2020/12/09 07:57:48;;;;;;;79.70;43.13;;;2.70;92.70;;;;;;5004621;28;87237;-75
2020/12/09 08:00:17;;;;;;;74.77;42.97;;;2.60;93.00;;;;;;5021090;28;88210;-75
2020/12/09 08:02:45;;;;;;;80.83;43.87;;;2.60;93.20;;;;;;5000119;28;91650;-75
2020/12/09 08:05:17;;;;;;;70.80;42.27;;;2.50;93.60;;;;;;4998098;28;86990;-75
2020/12/09 08:07:57;;;;;;;77.33;42.20;;;2.40;94.00;;;;;;5007077;28;87999;-75
2020/12/09 08:10:24;;;;;;;82.83;44.57;;;2.60;93.60;;;;;;5002540;28;90653;-75
2020/12/09 08:12:58;;;;;;;70.33;42.83;;;2.70;93.30;;;;;;4990079;28;92192;-74
2020/12/09 08:15:24;;;;;;;78.63;47.20;;;2.70;93.00;;;;;;5007962;28;88591;-74
2020/12/09 08:17:50;;;;;;;79.73;46.20;;;2.80;92.80;;;;;;4999633;28;87923;-73
2020/12/09 08:20:17;;;;;;;81.50;46.07;;;2.80;92.30;;;;;;4987555;28;91304;-73
2020/12/09 08:23:09;;;;;;;78.87;48.47;;;2.80;92.50;;;;;;4999900;28;91451;-74
2020/12/09 08:25:43;;;;;;;;;;;2.60;93.10;;;;;;4998787;28;87048;-72
2020/12/09 08:28:08;;;;;;;81.30;46.10;;;2.60;93.20;;;;;;5008236;28;88346;-73
2020/12/09 08:30:35;;;;;;;86.30;50.07;;;2.70;93.00;;;;;;5003259;28;89947;-75
2020/12/09 08:33:12;;;;;;;85.60;49.00;;;2.70;92.90;;;;;;5004565;28;88048;-74
2020/12/09 08:35:59;;;;;;;87.23;49.43;;;2.80;92.90;;;;;;5009039;28;87393;-73
2020/12/09 08:38:59;;;;;;;83.30;50.60;;;2.90;92.70;;;;;;5011593;28;88398;-73
2020/12/09 08:41:30;;;;;;;85.37;48.93;;;3.00;92.00;;;;;;4983737;28;92634;-79
2020/12/09 08:44:01;;;;;;;83.10;47.47;;;3.10;91.40;;;;;;4997811;28;87384;-78
2020/12/09 08:46:28;;;;;;;73.33;42.43;;;2.90;92.10;;;;;;5003356;28;87294;-78
2020/12/09 08:48:55;;;;;;;84.20;49.93;;;2.80;92.00;;;;;;5008522;28;87424;-77
2020/12/09 08:51:29;;;;;;;78.67;46.00;;;2.80;92.40;;;;;;5010081;28;91538;-78
2020/12/09 08:53:56;;;;;;;81.07;47.20;;;2.80;92.60;;;;;;5008139;28;87071;-75
2020/12/09 08:56:29;;;;;;;77.60;44.70;;;2.70;92.70;;;;;;5008662;28;87133;-74
2020/12/09 08:58:55;;;;;;;76.00;45.50;;;2.70;92.80;;;;;;5010512;28;86712;-76
2020/12/09 09:01:21;;;;;;;77.00;47.03;;;2.70;92.80;;;;;;4995135;28;91640;-75
2020/12/09 09:03:51;;;;;;;84.37;49.00;;;2.70;92.80;;;;;;5007675;28;88327;-75
2020/12/09 09:06:17;;;;;;;82.30;47.60;;;2.60;92.80;;;;;;5007587;28;88123;-75
2020/12/09 09:08:43;;;;;;;81.70;48.37;;;2.60;93.20;;;;;;5014321;28;87034;-79
2020/12/09 09:11:09;;;;;;;82.33;49.20;;;2.60;93.20;;;;;;5011981;28;87233;-78
2020/12/09 09:13:35;;;;;;;78.80;48.83;;;2.60;93.20;;;;;;5005223;28;89424;-78
2020/12/09 09:18:42;;;;;;;76.17;47.23;;;2.80;92.90;;;;;;5974978;22;88230;-79
2020/12/09 09:23:57;;;;;;;81.70;47.97;;;2.90;92.60;;;;;;4954915;23;86764;-76
2020/12/09 09:26:23;;;;;;;78.80;48.03;;;2.90;92.30;;;;;;4950536;28;87583;-75
2020/12/09 09:28:49;;;;;;;77.80;46.70;;;2.90;92.30;;;;;;4956446;28;88553;-76
2020/12/09 09:31:14;;;;;;;84.13;49.57;;;2.90;92.50;;;;;;4955019;28;91724;-75
2020/12/09 09:36:22;;;;;;;87.15;47.65;;;2.80;92.40;;;;;;5981000;22;88444;-79
2020/12/09 09:41:44;;;;;;;74.23;46.23;;;2.90;92.40;;;;;;5058635;22;88776;-79
2020/12/09 09:44:11;;;;;;;88.17;53.60;;;2.90;92.50;;;;;;4953578;28;89090;-78
2020/12/09 09:46:37;;;;;;;78.23;47.27;;;3.10;92.10;;;;;;4996908;23;86972;-79
2020/12/09 09:49:03;;;;;;;91.43;55.33;;;3.10;91.90;;;;;;4994773;28;86274;-79
2020/12/09 09:51:28;;;;;;;78.20;47.20;;;3.20;91.60;;;;;;4993542;28;89961;-78
2020/12/09 09:53:55;;;;;;;80.00;45.70;;;3.20;91.40;;;;;;4983497;28;89302;-80
2020/12/09 09:56:21;;;;;;;82.40;49.70;;;3.20;91.40;;;;;;5724799;22;89973;-76
2020/12/09 09:58:47;;;;;;;81.13;50.07;;;3.30;91.20;;;;;;4959970;28;86945;-76
2020/12/09 10:01:16;;;;;;;74.13;45.40;;;3.40;90.70;;;;;;4954896;28;87751;-76
2020/12/09 10:03:42;;;;;;;73.97;45.80;;;3.30;90.80;;;;;;4934280;28;91374;-76
2020/12/09 10:06:08;;;;;;;70.53;45.60;;;3.30;91.10;;;;;;4936798;28;87535;-76
2020/12/09 10:08:34;;;;;;;75.03;45.03;;;3.20;91.20;;;;;;4937166;28;88320;-76
2020/12/09 10:11:04;;;;;;;64.97;42.60;;;3.20;91.40;;;;;;4938976;28;91013;-76
2020/12/09 10:13:30;;;;;;;75.70;45.90;;;3.20;91.40;;;;;;4941294;28;88388;-76
2020/12/09 10:15:56;;;;;;;71.13;44.90;;;3.30;91.10;;;;;;4943187;28;87029;-76
2020/12/09 10:18:22;;;;;;;73.83;46.33;;;3.30;90.90;;;;;;4942710;28;87168;-77
2020/12/09 10:20:48;;;;;;;76.60;47.60;;;3.40;91.00;;;;;;4943327;28;92568;-76
2020/12/09 10:23:14;;;;;;;69.23;44.73;;;3.40;90.90;;;;;;4931567;28;92661;-76
2020/12/09 10:25:40;;;;;;;63.87;42.03;;;3.40;90.60;;;;;;4956189;28;87015;-78
2020/12/09 10:28:06;;;;;;;65.30;40.17;;;3.30;90.70;;;;;;5286978;22;86800;-78
2020/12/09 10:30:32;;;;;;;64.63;42.00;;;3.30;90.90;;;;;;5079901;23;91136;-77
2020/12/09 10:32:58;;;;;;;62.87;42.07;;;3.30;90.80;;;;;;5217417;22;89503;-78
2020/12/09 10:35:24;;;;;;;63.47;42.27;;;3.30;90.80;;;;;;5000983;28;86812;-79
2020/12/09 10:37:50;;;;;;;64.13;41.73;;;3.30;91.00;;;;;;5051139;22;87858;-78
2020/12/09 10:40:16;;;;;;;56.67;36.00;;;3.40;91.00;;;;;;4949748;28;88868;-76
2020/12/09 10:42:41;;;;;;;64.93;41.47;;;3.30;91.00;;;;;;4958424;28;87947;-76
2020/12/09 10:45:08;;;;;;;66.77;41.43;;;3.40;90.80;;;;;;4957839;28;88340;-76
2020/12/09 10:47:34;;;;;;;67.93;46.00;;;3.40;90.70;;;;;;4959179;28;87626;-75
2020/12/09 10:50:00;;;;;;;69.27;43.40;;;3.40;90.90;;;;;;4951973;28;91641;-76
2020/12/09 10:52:26;;;;;;;59.23;38.87;;;3.40;90.60;;;;;;4963672;28;91048;-75
2020/12/09 10:54:52;;;;;;;63.20;42.03;;;3.40;90.40;;;;;;4954029;28;87565;-75
2020/12/09 10:57:18;;;;;;;61.17;39.47;;;3.40;90.50;;;;;;4956323;28;88879;-76
2020/12/09 10:59:43;;;;;;;59.00;39.20;;;3.40;90.30;;;;;;4959457;28;86918;-76
2020/12/09 11:02:10;;;;;;;64.10;41.80;;;3.40;90.40;;;;;;4946276;28;90218;-75
2020/12/09 11:04:37;;;;;;;60.63;38.83;;;3.40;90.40;;;;;;4952594;28;87468;-75
2020/12/09 11:07:10;;;;;;;65.13;41.90;;;3.40;90.40;;;;;;4941547;28;87596;-76
2020/12/09 11:09:39;;;;;;;63.93;40.10;;;3.40;90.60;;;;;;4966656;28;92002;-75
2020/12/09 11:12:04;;;;;;;58.73;38.43;;;3.40;90.40;;;;;;4960261;28;88473;-76
2020/12/09 11:14:33;;;;;;;54.00;36.73;;;3.40;90.30;;;;;;4954880;28;87400;-76
2020/12/09 11:17:00;;;;;;;63.27;38.97;;;3.50;90.20;;;;;;4944431;28;87427;-76
2020/12/09 11:19:26;;;;;;;61.03;38.50;;;3.50;90.40;;;;;;4958181;28;91343;-76
2020/12/09 11:21:52;;;;;;;53.13;37.00;;;3.50;90.10;;;;;;4961776;28;87812;-75
2020/12/09 11:24:19;;;;;;;61.40;37.90;;;3.50;90.00;;;;;;4941015;28;87013;-75
2020/12/09 11:26:46;;;;;;;54.93;36.90;;;3.40;90.00;;;;;;4959002;28;87354;-75
2020/12/09 11:29:11;;;;;;;55.20;37.60;;;3.40;90.30;;;;;;4950782;28;91466;-76
2020/12/09 11:31:38;;;;;;;58.43;39.03;;;3.60;90.00;;;;;;4954139;28;89042;-75
2020/12/09 11:34:05;;;;;;;52.63;36.03;;;3.60;89.40;;;;;;4976908;28;88352;-76
2020/12/09 11:36:31;;;;;;;58.30;36.97;;;3.60;89.10;;;;;;4933957;28;87962;-76
2020/12/09 11:38:57;;;;;;;48.23;32.67;;;3.50;89.50;;;;;;4960735;28;89899;-76
2020/12/09 11:41:28;;;;;;;46.70;31.40;;;3.50;89.10;;;;;;4976868;28;88440;-75
2020/12/09 11:43:55;;;;;;;51.77;34.47;;;3.60;89.10;;;;;;4981679;28;87156;-76
2020/12/09 11:46:22;;;;;;;47.27;33.27;;;3.70;87.80;;;;;;4963702;28;88216;-75
2020/12/09 11:48:49;;;;;;;54.87;36.83;;;3.60;88.50;;;;;;4954347;28;87067;-75
2020/12/09 11:51:15;;;;;;;50.07;34.93;;;3.60;88.90;;;;;;4947829;28;91278;-75
2020/12/09 11:53:42;;;;;;;55.20;36.93;;;3.60;89.00;;;;;;4947252;28;87345;-76
2020/12/09 11:56:09;;;;;;;50.13;33.57;;;3.70;88.70;;;;;;4963572;28;87969;-76
2020/12/09 11:58:35;;;;;;;50.80;34.03;;;3.80;88.40;;;;;;4978317;28;88967;-76
2020/12/09 12:01:05;;;;;;;54.90;34.90;;;3.70;88.60;;;;;;4969045;28;92966;-75
2020/12/09 12:03:31;;;;;;;51.30;34.93;;;3.70;88.70;;;;;;4963334;28;87327;-74
2020/12/09 12:05:57;;;;;;;48.20;32.00;;;3.70;88.70;;;;;;4982401;28;87262;-75
2020/12/09 12:08:23;;;;;;;52.00;31.93;;;3.70;88.50;;;;;;4961623;28;88954;-76
2020/12/09 12:10:49;;;;;;;49.80;32.53;;;3.80;88.50;;;;;;4969806;28;87553;-77
2020/12/09 12:13:14;;;;;;;48.87;34.63;;;3.80;88.40;;;;;;4932850;28;87437;-76
2020/12/09 12:15:42;;;;;;;51.40;33.80;;;3.90;87.70;;;;;;4964195;28;88088;-76
2020/12/09 12:18:08;;;;;;;46.70;32.23;;;3.70;88.40;;;;;;4945630;28;91369;-77
2020/12/09 12:23:16;;;;;;;46.30;30.98;;;3.70;88.70;;;;;;5092714;22;88752;-79
2020/12/09 12:25:42;;;;;;;48.50;31.63;;;3.70;89.50;;;;;;5641112;22;88784;-83
2020/12/09 12:42:00;;;;;;;42.97;28.37;;;4.10;86.70;;;;;;5135109;22;87903;-76
2020/12/09 12:44:26;;;;;;;42.53;29.47;;;4.10;85.90;;;;;;4944534;28;87515;-76
2020/12/09 12:46:52;;;;;;;41.83;28.30;;;4.10;86.20;;;;;;4953425;28;87176;-77
2020/12/09 12:49:17;;;;;;;42.77;28.10;;;4.10;85.80;;;;;;4954244;28;88801;-76
2020/12/09 12:51:44;;;;;;;34.33;24.40;;;4.10;85.90;;;;;;4950270;28;89029;-76
2020/12/09 12:54:10;;;;;;;44.27;27.83;;;4.00;85.90;;;;;;4938184;28;87286;-76
2020/12/09 12:56:36;;;;;;;39.33;26.20;;;4.10;85.50;;;;;;4950972;28;88276;-76
2020/12/09 12:59:02;;;;;;;36.37;24.83;;;4.10;85.70;;;;;;4928030;28;90547;-76
2020/12/09 13:01:28;;;;;;;39.67;26.10;;;4.00;85.30;;;;;;4945882;28;91493;-76
2020/12/09 13:03:54;;;;;;;32.10;21.97;;;4.00;85.60;;;;;;4961851;28;87753;-76
2020/12/09 13:06:20;;;;;;;31.93;23.07;;;3.90;86.00;;;;;;4938085;28;87596;-76